Time;durP1;ratioP1;P1;durP2;ratioP2;P2;SDS_P1;SDS_P2;PMS_P1;PMS_P2;Temp;Humidity;BMP_temperature;BMP_pressure;BME280_temperature;BME280_humidity;BME280_pressure;Samples;Min_cycle;Max_cycle;Signal;HPM_P1;HPM_P2
2021/01/02 00:00:50;;;;;;;10.45;7.45;;;19.40;39.40;;;;;;5055392;28;20119;-67
2021/01/02 00:03:35;;;;;;;9.82;7.65;;;19.40;39.30;;;;;;5085635;28;20119;-68
2021/01/02 00:06:48;;;;;;;12.23;8.25;;;19.30;39.30;;;;;;5085278;28;20075;-68
2021/01/02 00:09:16;;;;;;;10.93;7.25;;;19.30;39.40;;;;;;5038369;28;20047;-68
2021/01/02 00:11:57;;;;;;;10.80;7.75;;;19.30;39.40;;;;;;5045179;28;20491;-68
2021/01/02 00:14:54;;;;;;;9.95;6.93;;;19.30;39.40;;;;;;5070104;28;20089;-68
2021/01/02 00:17:37;;;;;;;9.63;7.00;;;19.20;39.50;;;;;;5083363;28;20041;-68
2021/01/02 00:20:21;;;;;;;10.18;6.60;;;19.20;39.40;;;;;;5051513;28;20037;-68
2021/01/02 00:22:54;;;;;;;10.57;7.28;;;19.20;39.50;;;;;;5085121;28;20119;-74
2021/01/02 00:25:24;;;;;;;10.60;7.03;;;19.20;39.50;;;;;;5085076;28;20036;-74
2021/01/02 00:28:21;;;;;;;8.73;6.53;;;19.10;39.50;;;;;;5084655;28;20048;-74
2021/01/02 00:31:21;;;;;;;9.75;6.82;;;19.10;39.60;;;;;;5084953;28;20036;-74
2021/01/02 00:34:12;;;;;;;8.55;6.13;;;19.10;39.60;;;;;;5069216;28;20095;-73
2021/01/02 00:36:59;;;;;;;8.18;6.07;;;19.10;39.60;;;;;;5069517;28;20055;-75
2021/01/02 00:39:40;;;;;;;10.45;7.05;;;19.10;39.60;;;;;;5046358;28;20042;-74
2021/01/02 00:42:06;;;;;;;9.25;7.60;;;19.00;39.80;;;;;;5069348;28;20045;-74
2021/01/02 00:44:31;;;;;;;12.10;7.90;;;19.00;39.80;;;;;;5057456;28;20055;-73
2021/01/02 00:46:58;;;;;;;12.98;8.30;;;19.00;39.90;;;;;;5084857;28;20032;-74
2021/01/02 00:49:26;;;;;;;10.68;7.78;;;19.00;39.90;;;;;;5069091;28;20048;-73
2021/01/02 00:52:20;;;;;;;14.93;9.05;;;19.00;39.90;;;;;;5084245;28;20060;-74
2021/01/02 00:55:06;;;;;;;16.73;9.65;;;19.00;40.00;;;;;;5051435;28;20126;-74
2021/01/02 00:58:04;;;;;;;17.73;9.93;;;19.00;39.90;;;;;;5066278;28;20044;-73
2021/01/02 01:00:35;;;;;;;17.50;10.50;;;18.90;39.90;;;;;;5068780;28;20077;-74
2021/01/02 01:03:05;;;;;;;19.90;11.32;;;18.90;39.90;;;;;;5062157;28;20044;-74
2021/01/02 01:05:34;;;;;;;23.65;12.60;;;18.90;39.90;;;;;;5084281;28;20044;-73
2021/01/02 01:08:00;;;;;;;21.85;12.45;;;18.90;39.90;;;;;;5050557;28;20479;-74
2021/01/02 01:10:28;;;;;;;18.08;11.70;;;18.90;40.00;;;;;;5055244;28;20036;-73
2021/01/02 01:12:58;;;;;;;23.92;13.20;;;18.90;40.00;;;;;;5066388;28;20056;-74
2021/01/02 01:15:24;;;;;;;25.08;14.27;;;18.90;40.00;;;;;;5082761;28;20100;-73
2021/01/02 01:18:02;;;;;;;20.75;12.63;;;18.80;39.90;;;;;;5068961;28;20040;-73
2021/01/02 01:20:28;;;;;;;26.67;14.32;;;18.80;40.00;;;;;;5068171;28;20028;-73
2021/01/02 01:23:25;;;;;;;26.63;14.45;;;18.80;40.00;;;;;;5056596;28;20036;-73
2021/01/02 01:25:51;;;;;;;24.80;14.00;;;18.80;40.00;;;;;;5066939;28;20397;-73
2021/01/02 01:28:23;;;;;;;23.65;13.90;;;18.80;40.00;;;;;;5067975;28;20167;-73
2021/01/02 01:30:52;;;;;;;25.83;14.18;;;18.80;40.00;;;;;;5060828;28;20400;-73
2021/01/02 01:33:20;;;;;;;30.25;16.02;;;18.80;40.00;;;;;;5054783;28;20055;-73
2021/01/02 01:35:46;;;;;;;25.92;15.10;;;18.80;40.10;;;;;;5054993;28;20487;-72
2021/01/02 01:38:14;;;;;;;29.73;16.40;;;18.80;40.10;;;;;;5067139;28;20115;-73
2021/01/02 01:40:40;;;;;;;27.33;14.32;;;18.80;40.20;;;;;;5029151;28;20082;-73
2021/01/02 01:43:06;;;;;;;25.60;14.38;;;18.70;40.10;;;;;;5067263;28;20294;-73
2021/01/02 01:45:38;;;;;;;29.95;15.20;;;18.80;40.20;;;;;;5067437;28;20048;-73
2021/01/02 01:48:09;;;;;;;25.30;14.73;;;18.70;40.20;;;;;;5068433;28;20046;-73
2021/01/02 01:50:45;;;;;;;25.83;13.95;;;18.70;40.20;;;;;;5067892;28;20451;-73
2021/01/02 01:53:50;;;;;;;27.30;15.07;;;18.70;40.20;;;;;;5050116;28;20040;-73
2021/01/02 01:56:24;;;;;;;28.83;15.88;;;18.70;40.20;;;;;;5054663;28;20052;-73
2021/01/02 01:58:52;;;;;;;25.05;13.90;;;18.70;40.70;;;;;;5068091;28;20079;-73
2021/01/02 02:01:22;;;;;;;27.75;14.05;;;18.70;40.20;;;;;;5068279;28;20032;-73
2021/01/02 02:04:08;;;;;;;24.38;13.70;;;18.70;40.30;;;;;;5083386;28;20063;-73
2021/01/02 02:06:34;;;;;;;23.70;12.60;;;18.70;40.70;;;;;;5065204;28;20040;-73
2021/01/02 02:09:00;;;;;;;24.63;13.25;;;18.70;40.20;;;;;;5054674;28;20479;-73
2021/01/02 02:11:35;;;;;;;23.73;12.50;;;18.70;40.30;;;;;;5055931;28;20107;-73
2021/01/02 02:14:10;;;;;;;21.27;12.13;;;18.70;40.30;;;;;;5067548;28;20490;-73
2021/01/02 02:16:44;;;;;;;20.67;12.10;;;18.60;40.20;;;;;;5083125;28;20396;-73
2021/01/02 02:19:47;;;;;;;21.52;11.30;;;18.60;40.20;;;;;;5082350;28;20063;-73
2021/01/02 02:22:14;;;;;;;18.70;10.93;;;18.60;40.20;;;;;;5057978;28;20040;-73
2021/01/02 02:24:41;;;;;;;20.45;10.85;;;18.60;40.20;;;;;;5049660;28;20119;-73
2021/01/02 02:27:07;;;;;;;18.15;10.13;;;18.60;40.20;;;;;;5066292;28;20552;-74
2021/01/02 02:29:37;;;;;;;16.50;9.50;;;18.60;40.20;;;;;;5065787;28;20052;-73
2021/01/02 02:32:06;;;;;;;15.05;8.98;;;18.50;40.20;;;;;;5067667;28;20077;-73
2021/01/02 02:34:32;;;;;;;15.85;8.60;;;18.50;40.10;;;;;;5082949;28;20040;-73
2021/01/02 02:36:58;;;;;;;14.18;7.55;;;18.50;40.60;;;;;;5066104;28;20085;-72
2021/01/02 02:39:24;;;;;;;15.35;9.13;;;18.50;40.20;;;;;;5082937;28;20041;-73
2021/01/02 02:41:51;;;;;;;14.00;8.15;;;18.50;40.20;;;;;;5057393;28;20040;-73
2021/01/02 02:44:21;;;;;;;15.63;8.10;;;18.50;40.20;;;;;;5082593;28;20039;-73
2021/01/02 02:46:47;;;;;;;13.95;7.63;;;18.50;40.30;;;;;;5045927;28;20106;-73
2021/01/02 02:49:23;;;;;;;12.63;7.57;;;18.50;40.30;;;;;;5070057;28;20032;-73
2021/01/02 02:51:56;;;;;;;15.25;8.15;;;18.50;40.20;;;;;;5086901;28;20418;-73
2021/01/02 02:54:22;;;;;;;;;;;18.50;40.30;;;;;;5086986;28;20040;-73
2021/01/02 02:56:47;;;;;;;13.27;7.55;;;18.40;40.20;;;;;;5053398;28;19924;-73
2021/01/02 02:59:13;;;;;;;13.18;7.57;;;18.50;40.30;;;;;;5059697;28;20097;-74
2021/01/02 03:01:39;;;;;;;12.20;7.32;;;18.50;40.30;;;;;;5070640;28;20921;-73
2021/01/02 03:04:05;;;;;;;11.50;6.70;;;18.40;40.30;;;;;;5070952;28;20028;-73
2021/01/02 03:06:31;;;;;;;12.32;7.03;;;18.40;40.30;;;;;;5069520;28;20084;-73
2021/01/02 03:08:57;;;;;;;12.63;7.35;;;18.40;40.30;;;;;;5085892;28;20519;-73
2021/01/02 03:11:24;;;;;;;12.00;7.30;;;18.40;40.30;;;;;;5043626;28;20036;-73
2021/01/02 03:13:54;;;;;;;12.43;6.50;;;18.40;40.30;;;;;;5084993;28;20053;-73
2021/01/02 03:16:21;;;;;;;11.73;6.32;;;18.40;40.30;;;;;;5028751;28;20048;-73
2021/01/02 03:18:46;;;;;;;12.18;6.82;;;18.40;40.30;;;;;;5058532;28;20062;-73
2021/01/02 03:21:12;;;;;;;10.70;6.28;;;18.40;40.30;;;;;;5086480;28;20032;-74
2021/01/02 03:23:48;;;;;;;10.35;5.80;;;18.40;40.30;;;;;;5069322;28;20036;-74
2021/01/02 03:26:14;;;;;;;10.82;5.63;;;18.40;40.40;;;;;;5063918;28;20041;-74
2021/01/02 03:28:48;;;;;;;8.23;5.07;;;18.40;40.40;;;;;;5058431;28;20044;-75
2021/01/02 03:31:13;;;;;;;9.82;5.65;;;18.40;40.40;;;;;;5066570;28;20044;-75
2021/01/02 03:33:39;;;;;;;8.82;5.00;;;18.40;40.40;;;;;;5059440;28;20093;-75
2021/01/02 03:36:05;;;;;;;9.18;5.32;;;18.40;40.40;;;;;;5087176;28;20102;-75
2021/01/02 03:38:34;;;;;;;9.80;5.03;;;18.40;40.40;;;;;;5087424;28;20032;-75
2021/01/02 03:41:01;;;;;;;7.82;4.72;;;18.40;40.40;;;;;;5048938;28;20036;-75
2021/01/02 03:43:27;;;;;;;8.48;4.82;;;18.40;40.40;;;;;;5087205;28;20495;-75
2021/01/02 03:45:53;;;;;;;8.82;5.45;;;18.40;40.40;;;;;;5059551;28;20553;-75
2021/01/02 03:48:19;;;;;;;9.60;5.20;;;18.40;40.90;;;;;;5072807;28;20064;-75
2021/01/02 03:50:45;;;;;;;6.82;3.90;;;18.40;40.40;;;;;;5057846;28;20046;-75
2021/01/02 03:53:11;;;;;;;7.05;3.90;;;18.30;40.30;;;;;;5070065;28;20032;-74
2021/01/02 03:55:37;;;;;;;8.73;4.45;;;18.30;40.30;;;;;;5068305;28;20044;-75
2021/01/02 03:58:03;;;;;;;7.32;4.47;;;18.30;40.30;;;;;;5084967;28;20032;-75
2021/01/02 04:00:28;;;;;;;7.43;4.75;;;18.30;40.40;;;;;;5063977;28;20032;-75
2021/01/02 04:02:54;;;;;;;5.97;3.95;;;18.30;40.40;;;;;;5061018;28;20047;-75
2021/01/02 04:05:20;;;;;;;6.97;4.43;;;18.30;40.40;;;;;;5071009;28;20122;-75
2021/01/02 04:07:46;;;;;;;7.05;4.05;;;18.30;40.40;;;;;;5058050;28;20033;-75
2021/01/02 04:10:12;;;;;;;6.40;4.00;;;18.30;40.40;;;;;;5069922;28;20119;-68
2021/01/02 04:12:38;;;;;;;6.82;4.30;;;18.30;40.40;;;;;;5074559;28;20495;-67
2021/01/02 04:15:04;;;;;;;5.25;3.40;;;18.30;40.40;;;;;;5069135;28;20044;-67
2021/01/02 04:17:30;;;;;;;6.90;4.10;;;18.30;40.40;;;;;;5058460;28;20555;-67
2021/01/02 04:19:55;;;;;;;8.13;4.35;;;18.30;40.40;;;;;;5058206;28;20036;-67
2021/01/02 04:22:21;;;;;;;7.13;3.72;;;18.30;40.40;;;;;;5052328;28;20637;-67
2021/01/02 04:24:47;;;;;;;6.13;3.55;;;18.30;40.40;;;;;;5085057;28;20127;-67
2021/01/02 04:27:12;;;;;;;6.45;4.25;;;18.30;40.40;;;;;;5084585;28;20052;-67
2021/01/02 04:29:38;;;;;;;5.10;3.28;;;18.20;40.40;;;;;;5056742;28;20048;-67
2021/01/02 04:32:06;;;;;;;7.30;3.63;;;18.30;40.40;;;;;;5070012;28;20054;-67
2021/01/02 04:34:31;;;;;;;6.07;3.63;;;18.30;40.40;;;;;;5056594;28;20518;-67
2021/01/02 04:36:57;;;;;;;4.97;3.60;;;18.20;40.30;;;;;;5057287;28;20037;-67
2021/01/02 04:39:23;;;;;;;5.60;3.00;;;18.20;40.30;;;;;;5068503;28;20102;-75
2021/01/02 04:41:49;;;;;;;4.80;3.13;;;18.20;40.30;;;;;;5087156;28;20061;-75
2021/01/02 04:44:16;;;;;;;5.28;2.97;;;18.20;40.30;;;;;;5069435;28;20483;-75
2021/01/02 04:46:44;;;;;;;4.90;3.33;;;18.20;40.40;;;;;;5086548;28;20140;-75
2021/01/02 04:49:10;;;;;;;5.03;2.92;;;18.20;40.40;;;;;;5070184;28;20062;-75
2021/01/02 04:51:36;;;;;;;4.88;3.00;;;18.20;40.40;;;;;;5046738;28;20041;-75
2021/01/02 04:54:03;;;;;;;3.63;2.40;;;18.10;40.30;;;;;;5070034;28;20039;-75
2021/01/02 04:56:36;;;;;;;4.07;2.83;;;18.10;40.30;;;;;;5059237;28;20037;-74
2021/01/02 04:59:03;;;;;;;4.82;2.83;;;18.10;40.30;;;;;;5059599;28;20911;-74
2021/01/02 05:01:29;;;;;;;3.97;2.55;;;18.10;40.30;;;;;;5068762;28;20082;-75
2021/01/02 05:03:55;;;;;;;4.45;2.60;;;18.10;40.30;;;;;;5085270;28;20609;-75
2021/01/02 05:06:21;;;;;;;2.78;2.20;;;18.10;40.30;;;;;;5057036;28;20040;-74
2021/01/02 05:08:49;;;;;;;3.60;2.42;;;18.10;40.30;;;;;;5073085;28;20383;-74
2021/01/02 05:11:14;;;;;;;4.03;2.47;;;18.10;40.30;;;;;;5055804;28;20032;-74
2021/01/02 05:13:40;;;;;;;4.47;2.83;;;18.10;40.30;;;;;;5069654;28;20142;-75
2021/01/02 05:16:42;;;;;;;4.43;2.40;;;18.10;40.40;;;;;;5067811;28;20047;-74
2021/01/02 05:19:13;;;;;;;4.13;2.75;;;18.10;40.40;;;;;;5081371;28;20035;-75
2021/01/02 05:21:48;;;;;;;4.97;2.80;;;18.10;40.40;;;;;;5084753;28;20029;-75
2021/01/02 05:24:19;;;;;;;4.45;2.90;;;18.10;40.40;;;;;;5070030;28;20372;-74
2021/01/02 05:26:58;;;;;;;4.55;2.90;;;18.10;40.40;;;;;;5057801;28;20380;-75
2021/01/02 05:29:25;;;;;;;4.30;3.05;;;18.00;40.90;;;;;;5058174;28;20049;-75
2021/01/02 05:31:58;;;;;;;4.00;2.60;;;18.00;40.40;;;;;;5046880;28;20043;-75
2021/01/02 05:34:25;;;;;;;3.75;2.72;;;18.00;40.50;;;;;;5082696;28;20036;-74
2021/01/02 05:37:01;;;;;;;4.00;2.63;;;18.00;40.50;;;;;;5057245;28;20515;-75
2021/01/02 05:39:53;;;;;;;4.90;2.45;;;18.00;40.50;;;;;;5059370;28;20076;-75
2021/01/02 05:42:22;;;;;;;4.67;2.70;;;18.00;40.50;;;;;;5068712;28;20048;-75
2021/01/02 05:44:48;;;;;;;3.90;2.67;;;18.00;40.50;;;;;;5067437;28;20298;-74
2021/01/02 05:47:19;;;;;;;4.25;2.58;;;18.00;40.50;;;;;;5045877;28;20047;-74
2021/01/02 05:49:49;;;;;;;4.80;3.20;;;18.00;40.50;;;;;;5062918;28;20085;-75
2021/01/02 05:52:15;;;;;;;4.50;2.60;;;18.00;40.60;;;;;;5084456;28;20499;-75
2021/01/02 05:54:46;;;;;;;4.82;2.47;;;18.00;41.10;;;;;;5068437;28;20032;-73
2021/01/02 05:57:12;;;;;;;4.22;2.60;;;18.00;40.60;;;;;;5067823;28;20036;-72
2021/01/02 05:59:39;;;;;;;3.60;2.17;;;18.00;40.60;;;;;;5066637;28;20387;-73
2021/01/02 06:02:29;;;;;;;3.92;2.63;;;18.00;40.60;;;;;;5050834;28;20051;-73
2021/01/02 06:05:10;;;;;;;4.32;2.50;;;18.00;40.60;;;;;;5083170;28;20047;-73
2021/01/02 06:07:37;;;;;;;4.18;2.40;;;17.90;40.50;;;;;;5083568;28;20048;-73
2021/01/02 06:10:06;;;;;;;3.78;2.63;;;17.90;40.60;;;;;;5071660;28;20111;-73
2021/01/02 06:12:37;;;;;;;3.90;2.90;;;17.90;40.60;;;;;;5083079;28;20055;-67
2021/01/02 06:15:05;;;;;;;4.93;2.38;;;17.90;40.60;;;;;;5065317;28;20029;-68
2021/01/02 06:17:50;;;;;;;3.00;2.28;;;17.90;40.50;;;;;;5082516;28;20463;-67
2021/01/02 06:20:16;;;;;;;4.03;2.53;;;17.90;40.60;;;;;;5080300;28;20043;-67
2021/01/02 06:22:42;;;;;;;3.25;2.15;;;17.90;40.60;;;;;;5082810;28;20098;-67
2021/01/02 06:25:10;;;;;;;3.75;2.33;;;17.90;40.60;;;;;;5066809;28;20063;-68
2021/01/02 06:27:40;;;;;;;3.92;2.50;;;17.90;40.60;;;;;;5082831;28;20052;-68
2021/01/02 06:30:06;;;;;;;3.50;2.40;;;17.90;40.60;;;;;;5083198;28;20039;-68
2021/01/02 06:32:32;;;;;;;4.95;2.80;;;17.90;40.60;;;;;;5052637;28;20044;-68
2021/01/02 06:35:10;;;;;;;3.97;2.42;;;17.80;40.60;;;;;;5044593;28;20036;-67
2021/01/02 06:37:48;;;;;;;3.42;2.33;;;17.90;40.60;;;;;;5067029;28;20047;-67
2021/01/02 06:40:24;;;;;;;3.63;2.60;;;17.80;40.60;;;;;;5067516;28;20037;-67
2021/01/02 06:42:58;;;;;;;3.85;2.58;;;17.80;40.60;;;;;;5049205;28;20041;-67
2021/01/02 06:45:36;;;;;;;3.88;2.53;;;17.80;40.60;;;;;;5055318;28;20028;-67
2021/01/02 06:48:26;;;;;;;3.75;2.55;;;17.80;40.60;;;;;;5066247;28;20047;-67
2021/01/02 06:50:55;;;;;;;3.40;2.30;;;17.80;40.70;;;;;;5064143;28;20048;-67
2021/01/02 06:53:28;;;;;;;4.70;2.42;;;17.80;40.90;;;;;;5067105;28;20502;-67
2021/01/02 06:56:04;;;;;;;;;;;17.80;41.00;;;;;;5055141;28;20052;-67
2021/01/02 06:58:51;;;;;;;5.22;2.65;;;17.80;40.90;;;;;;5049443;28;19925;-67
2021/01/02 07:01:16;;;;;;;5.35;2.30;;;17.80;41.00;;;;;;5067046;28;20484;-67
2021/01/02 07:03:46;;;;;;;5.25;2.30;;;17.80;41.20;;;;;;5067164;28;20032;-67
2021/01/02 07:06:21;;;;;;;4.30;2.35;;;17.80;41.30;;;;;;5082419;28;20393;-66
2021/01/02 07:09:00;;;;;;;7.38;2.42;;;17.90;41.20;;;;;;5066370;28;20476;-67
2021/01/02 07:11:36;;;;;;;3.25;2.25;;;17.90;41.20;;;;;;5081743;28;20089;-67
2021/01/02 07:14:17;;;;;;;8.10;2.70;;;17.80;41.10;;;;;;5049717;28;20040;-74
2021/01/02 07:17:01;;;;;;;4.82;2.40;;;17.90;41.10;;;;;;5067715;28;20036;-73
2021/01/02 07:19:37;;;;;;;3.28;2.17;;;17.80;41.10;;;;;;5054587;28;20998;-74
2021/01/02 07:22:08;;;;;;;5.20;1.95;;;17.80;41.10;;;;;;5066084;28;20040;-73
2021/01/02 07:24:37;;;;;;;4.68;2.50;;;17.80;41.10;;;;;;5071974;28;20134;-71
2021/01/02 07:27:16;;;;;;;3.08;2.13;;;17.80;41.10;;;;;;5067212;28;20037;-73
2021/01/02 07:29:45;;;;;;;3.85;2.10;;;17.80;41.20;;;;;;5083439;28;20048;-74
2021/01/02 07:32:11;;;;;;;7.45;2.70;;;17.80;41.10;;;;;;5067230;28;20456;-72
2021/01/02 07:34:58;;;;;;;5.13;2.00;;;17.90;41.20;;;;;;5068488;28;21088;-74
2021/01/02 07:37:28;;;;;;;14.55;3.03;;;17.90;41.20;;;;;;5072161;28;20040;-75
2021/01/02 07:39:57;;;;;;;5.75;2.13;;;18.00;41.40;;;;;;5074310;28;20114;-77
2021/01/02 07:42:23;;;;;;;4.82;2.03;;;18.00;41.30;;;;;;5070590;28;20039;-74
2021/01/02 07:45:01;;;;;;;5.55;2.35;;;18.10;41.40;;;;;;5087000;28;20115;-74
2021/01/02 07:47:27;;;;;;;4.65;2.30;;;18.20;41.50;;;;;;5090967;28;20120;-77
2021/01/02 07:50:23;;;;;;;4.20;2.38;;;18.30;41.50;;;;;;5087353;28;20115;-76
2021/01/02 07:52:58;;;;;;;4.53;2.30;;;18.40;41.50;;;;;;5075812;28;20135;-77
2021/01/02 07:55:29;;;;;;;4.18;1.70;;;18.50;41.40;;;;;;5078213;28;20040;-76
2021/01/02 07:57:55;;;;;;;6.13;2.08;;;18.70;41.40;;;;;;5070620;28;20040;-77
2021/01/02 08:00:21;;;;;;;4.07;1.77;;;18.80;41.30;;;;;;5091257;28;20032;-76
2021/01/02 08:02:47;;;;;;;3.35;2.03;;;18.90;41.20;;;;;;5052076;28;20040;-76
2021/01/02 08:05:18;;;;;;;3.92;2.50;;;19.00;41.10;;;;;;5072526;28;20055;-76
2021/01/02 08:07:57;;;;;;;2.22;1.73;;;19.10;41.00;;;;;;5090110;28;20041;-76
2021/01/02 08:10:23;;;;;;;2.75;1.63;;;19.10;40.90;;;;;;5058941;28;20486;-75
2021/01/02 08:12:50;;;;;;;5.60;2.35;;;19.20;40.80;;;;;;5088700;28;20043;-74
2021/01/02 08:15:24;;;;;;;3.20;2.10;;;19.30;41.10;;;;;;5064950;28;20040;-76
2021/01/02 08:17:50;;;;;;;4.72;1.88;;;19.40;41.40;;;;;;5065297;28;20062;-73
2021/01/02 08:20:16;;;;;;;5.07;2.42;;;19.60;41.90;;;;;;5086137;28;20037;-75
2021/01/02 08:22:41;;;;;;;2.55;1.75;;;19.70;41.70;;;;;;5048022;28;20055;-69
2021/01/02 08:25:14;;;;;;;3.95;1.80;;;19.80;41.60;;;;;;5068599;28;20534;-72
2021/01/02 08:27:40;;;;;;;2.20;1.58;;;19.90;41.40;;;;;;5083423;28;20131;-68
2021/01/02 08:30:08;;;;;;;2.55;1.83;;;20.00;41.10;;;;;;5086425;28;20551;-68
2021/01/02 08:32:59;;;;;;;5.10;1.85;;;20.00;41.40;;;;;;5067171;28;20096;-76
2021/01/02 08:35:38;;;;;;;4.88;2.13;;;20.00;41.20;;;;;;5058964;28;20526;-71
2021/01/02 08:38:08;;;;;;;4.70;1.90;;;20.10;41.10;;;;;;5010956;28;20041;-70
2021/01/02 08:40:50;;;;;;;3.95;1.98;;;20.20;41.20;;;;;;5041302;28;106779;-72
2021/01/02 08:43:26;;;;;;;4.55;2.03;;;20.30;41.60;;;;;;5075512;28;115831;-74
2021/01/02 08:46:03;;;;;;;4.88;3.75;;;20.60;40.90;;;;;;5041680;28;20138;-69
2021/01/02 08:48:29;;;;;;;4.80;2.83;;;20.60;38.40;;;;;;5067640;28;20070;-69
2021/01/02 08:50:54;;;;;;;3.80;2.50;;;20.60;38.60;;;;;;5068652;28;20156;-69
2021/01/02 08:53:27;;;;;;;3.00;2.28;;;20.60;39.90;;;;;;5084226;28;20093;-72
2021/01/02 08:55:53;;;;;;;3.20;2.13;;;20.70;39.50;;;;;;5057861;28;20510;-71
2021/01/02 08:58:32;;;;;;;4.85;2.40;;;20.80;39.40;;;;;;5067104;28;20032;-71
2021/01/02 09:00:58;;;;;;;2.55;1.75;;;20.80;39.10;;;;;;5084542;28;20032;-71
2021/01/02 09:03:24;;;;;;;5.10;2.45;;;20.70;39.00;;;;;;5059173;28;20055;-71
2021/01/02 09:05:49;;;;;;;7.28;2.63;;;20.70;38.80;;;;;;5050008;28;20066;-72
2021/01/02 09:08:19;;;;;;;5.93;2.45;;;20.70;38.80;;;;;;5067322;28;20549;-70
2021/01/02 09:10:45;;;;;;;6.93;2.03;;;20.70;38.80;;;;;;5071363;28;20107;-70
2021/01/02 09:13:21;;;;;;;6.15;2.22;;;20.60;38.80;;;;;;5073065;28;20052;-71
2021/01/02 09:15:56;;;;;;;5.88;2.75;;;20.60;38.80;;;;;;5082693;28;20043;-70
2021/01/02 09:18:31;;;;;;;6.13;2.53;;;20.50;38.80;;;;;;5069756;28;20063;-72
2021/01/02 09:21:05;;;;;;;6.15;2.25;;;20.50;39.00;;;;;;5070703;28;20025;-71
2021/01/02 09:23:38;;;;;;;5.10;2.47;;;20.40;39.00;;;;;;5071189;28;20024;-70
2021/01/02 09:26:04;;;;;;;6.97;2.47;;;20.40;39.20;;;;;;5074444;28;20384;-69
2021/01/02 09:28:42;;;;;;;4.78;2.78;;;20.40;39.40;;;;;;5068391;28;20053;-72
2021/01/02 09:31:08;;;;;;;5.80;3.55;;;20.30;39.30;;;;;;5061622;28;20059;-71
2021/01/02 09:33:34;;;;;;;4.68;2.75;;;20.20;38.60;;;;;;5089641;28;20064;-72
2021/01/02 09:36:00;;;;;;;4.80;3.10;;;20.10;39.00;;;;;;5053152;28;20040;-73
2021/01/02 09:38:26;;;;;;;6.75;3.10;;;20.20;39.50;;;;;;5065983;28;22338;-70
2021/01/02 09:40:51;;;;;;;5.00;3.10;;;20.30;39.80;;;;;;5084229;28;20119;-69
2021/01/02 09:43:17;;;;;;;5.93;2.95;;;20.30;39.90;;;;;;5069628;28;20039;-71
2021/01/02 09:45:43;;;;;;;4.90;2.85;;;20.40;40.30;;;;;;5083004;28;20062;-65
2021/01/02 09:48:10;;;;;;;5.30;3.13;;;20.50;39.90;;;;;;5065839;28;20455;-65
2021/01/02 09:50:36;;;;;;;6.55;3.35;;;20.60;40.40;;;;;;5057038;28;20051;-72
2021/01/02 09:53:03;;;;;;;7.72;3.55;;;20.60;39.70;;;;;;5071879;28;20048;-67
2021/01/02 09:55:29;;;;;;;6.53;3.42;;;20.70;39.60;;;;;;5081943;28;20045;-67
2021/01/02 09:57:54;;;;;;;4.55;2.85;;;20.70;39.40;;;;;;5073142;28;20037;-66
2021/01/02 10:00:20;;;;;;;4.50;2.67;;;20.70;39.30;;;;;;5067600;28;20035;-70
2021/01/02 10:02:46;;;;;;;8.20;3.53;;;20.70;39.20;;;;;;5066355;28;20037;-76
2021/01/02 10:05:13;;;;;;;6.70;3.28;;;20.60;39.00;;;;;;5067599;28;20472;-68
2021/01/02 10:07:39;;;;;;;5.90;3.28;;;20.60;38.90;;;;;;5083322;28;20545;-66
2021/01/02 10:10:05;;;;;;;6.00;2.85;;;20.60;38.80;;;;;;5044601;28;20119;-68
2021/01/02 10:12:33;;;;;;;5.72;3.72;;;20.60;38.80;;;;;;5085463;28;20124;-69
2021/01/02 10:14:59;;;;;;;8.70;3.15;;;20.50;38.70;;;;;;5089699;28;20376;-69
2021/01/02 10:17:27;;;;;;;6.60;3.22;;;20.50;38.70;;;;;;5070217;28;20460;-72
2021/01/02 10:19:53;;;;;;;6.53;3.50;;;20.50;38.90;;;;;;5067982;28;20032;-71
2021/01/02 10:22:19;;;;;;;6.43;3.40;;;20.40;38.80;;;;;;5072585;28;20040;-71
2021/01/02 10:24:54;;;;;;;5.47;3.22;;;20.30;38.80;;;;;;5047596;28;20028;-72
2021/01/02 10:27:20;;;;;;;7.82;3.63;;;20.20;39.20;;;;;;5045196;28;20422;-69
2021/01/02 10:29:48;;;;;;;6.40;3.58;;;20.20;39.30;;;;;;5067000;28;20037;-70
2021/01/02 10:32:14;;;;;;;7.82;3.63;;;20.10;39.40;;;;;;5083259;28;20037;-72
2021/01/02 10:34:41;;;;;;;6.90;4.95;;;20.10;39.30;;;;;;5082750;28;20492;-71
2021/01/02 10:37:07;;;;;;;6.35;5.00;;;19.90;37.30;;;;;;5044240;28;20051;-70
2021/01/02 10:39:32;;;;;;;5.65;4.18;;;19.50;36.70;;;;;;5062066;28;20068;-75
2021/01/02 10:41:58;;;;;;;5.25;3.20;;;19.40;38.30;;;;;;5067909;28;20032;-69
2021/01/02 10:44:24;;;;;;;7.18;3.45;;;19.40;38.60;;;;;;5072746;28;20032;-69
2021/01/02 10:46:51;;;;;;;4.20;2.70;;;19.50;38.90;;;;;;5082296;28;20041;-72
2021/01/02 10:49:19;;;;;;;6.38;3.03;;;19.50;39.10;;;;;;5068471;28;20131;-75
2021/01/02 10:51:45;;;;;;;4.60;2.70;;;19.50;39.80;;;;;;5065789;28;20033;-71
2021/01/02 10:54:11;;;;;;;4.88;2.60;;;19.60;39.60;;;;;;5067281;28;20046;-74
2021/01/02 10:56:37;;;;;;;5.30;3.03;;;19.60;39.80;;;;;;5065690;28;20040;-72
2021/01/02 10:59:05;;;;;;;5.20;3.10;;;19.60;39.90;;;;;;5045200;28;20044;-73
2021/01/02 11:01:39;;;;;;;7.20;3.15;;;19.70;40.10;;;;;;5045006;28;20043;-73
2021/01/02 11:04:05;;;;;;;8.43;4.20;;;19.60;39.90;;;;;;5071106;28;20029;-75
2021/01/02 11:06:30;;;;;;;6.75;3.20;;;19.60;39.50;;;;;;5063340;28;20407;-71
2021/01/02 11:08:57;;;;;;;7.78;2.83;;;19.40;39.30;;;;;;5075100;28;20051;-72
2021/01/02 11:11:22;;;;;;;5.25;2.95;;;19.50;39.90;;;;;;5069831;28;20037;-71
2021/01/02 11:13:48;;;;;;;6.18;3.35;;;19.50;40.10;;;;;;5069554;28;20036;-71
2021/01/02 11:16:14;;;;;;;5.22;2.75;;;19.50;40.00;;;;;;5071774;28;20036;-75
2021/01/02 11:18:40;;;;;;;5.95;2.58;;;19.50;40.00;;;;;;5073599;28;20164;-73
2021/01/02 11:21:09;;;;;;;5.65;2.72;;;19.50;40.10;;;;;;5077786;28;20035;-83
2021/01/02 11:23:35;;;;;;;4.00;2.40;;;19.50;40.10;;;;;;5085726;28;20124;-72
2021/01/02 11:26:01;;;;;;;5.22;2.78;;;19.60;40.20;;;;;;5085966;28;20060;-70
2021/01/02 11:28:26;;;;;;;7.50;2.70;;;19.70;41.00;;;;;;5071066;28;20412;-75
2021/01/02 11:30:52;;;;;;;8.35;3.15;;;19.90;41.30;;;;;;5067685;28;20115;-74
2021/01/02 11:33:18;;;;;;;118.75;9.15;;;19.90;41.30;;;;;;5071907;28;20040;-76
2021/01/02 11:35:43;;;;;;;11.07;3.78;;;20.10;42.60;;;;;;5067488;28;20051;-72
2021/01/02 11:38:09;;;;;;;9.07;3.22;;;20.20;41.90;;;;;;5072728;28;20091;-67
2021/01/02 11:40:35;;;;;;;12.93;5.15;;;20.20;41.90;;;;;;5075251;28;20095;-67
2021/01/02 11:43:00;;;;;;;6.22;4.25;;;20.30;39.30;;;;;;5075756;28;20037;-69
2021/01/02 11:45:26;;;;;;;8.93;3.35;;;20.10;39.30;;;;;;5084350;28;20057;-70
2021/01/02 11:47:52;;;;;;;8.48;3.13;;;20.10;40.20;;;;;;5067110;28;20043;-69
2021/01/02 11:50:18;;;;;;;8.80;3.42;;;20.20;40.60;;;;;;5086564;28;20039;-70
2021/01/02 11:52:44;;;;;;;16.88;6.57;;;20.30;41.40;;;;;;5091611;28;20111;-69
2021/01/02 11:55:10;;;;;;;25.13;6.78;;;20.40;41.70;;;;;;5072314;28;20487;-70
2021/01/02 11:57:36;;;;;;;15.00;5.05;;;20.40;42.30;;;;;;5089266;28;20102;-68
2021/01/02 12:00:06;;;;;;;18.70;5.80;;;20.50;43.00;;;;;;5045505;28;20029;-69
2021/01/02 12:02:32;;;;;;;14.45;4.78;;;20.60;42.40;;;;;;5074724;28;20036;-69
2021/01/02 12:04:58;;;;;;;14.23;5.07;;;20.70;42.20;;;;;;5069739;28;20533;-67
2021/01/02 12:07:25;;;;;;;10.77;4.15;;;20.70;42.10;;;;;;5088187;28;20143;-70
2021/01/02 12:09:50;;;;;;;8.40;4.07;;;20.70;42.00;;;;;;5071849;28;20068;-69
2021/01/02 12:12:16;;;;;;;9.00;4.13;;;20.80;41.90;;;;;;5056790;28;20125;-70
2021/01/02 12:14:42;;;;;;;10.13;4.82;;;20.80;42.00;;;;;;5075773;28;20048;-69
2021/01/02 12:17:10;;;;;;;9.82;5.28;;;20.90;42.00;;;;;;5070901;28;20389;-75
2021/01/02 12:19:35;;;;;;;15.82;4.88;;;20.90;43.40;;;;;;5068932;28;20089;-75
2021/01/02 12:22:07;;;;;;;9.60;4.85;;;21.20;43.50;;;;;;5086485;28;20040;-72
2021/01/02 12:24:33;;;;;;;12.40;4.78;;;21.50;43.50;;;;;;5088026;28;20068;-70
2021/01/02 12:27:00;;;;;;;7.10;4.07;;;21.70;44.10;;;;;;5060943;28;20032;-67
2021/01/02 12:29:27;;;;;;;7.50;4.22;;;21.80;42.90;;;;;;5086764;28;20071;-73
2021/01/02 12:31:54;;;;;;;9.82;3.75;;;21.90;43.20;;;;;;5070910;28;20040;-76
2021/01/02 12:34:26;;;;;;;9.10;4.22;;;21.90;43.00;;;;;;5080379;28;20116;-72
2021/01/02 12:36:52;;;;;;;8.18;4.50;;;21.90;43.00;;;;;;5079463;28;20086;-76
2021/01/02 12:39:20;;;;;;;8.07;3.92;;;21.80;42.90;;;;;;5086846;28;20063;-68
2021/01/02 12:41:46;;;;;;;7.97;4.25;;;21.90;43.60;;;;;;5077493;28;20042;-67
2021/01/02 12:44:12;;;;;;;6.22;3.67;;;21.80;43.60;;;;;;5077117;28;20037;-70
2021/01/02 12:46:45;;;;;;;9.40;4.00;;;21.90;43.30;;;;;;5075340;28;20049;-66
2021/01/02 12:49:12;;;;;;;10.35;4.43;;;21.80;42.90;;;;;;5073234;28;20039;-68
2021/01/02 12:51:38;;;;;;;6.35;4.20;;;21.80;42.80;;;;;;5066866;28;20036;-67
2021/01/02 12:54:04;;;;;;;8.25;4.68;;;21.70;42.80;;;;;;5073718;28;20048;-67
2021/01/02 12:56:30;;;;;;;7.38;4.28;;;21.50;42.70;;;;;;5084143;28;20048;-67
2021/01/02 12:58:56;;;;;;;7.75;4.82;;;21.50;42.70;;;;;;5068176;28;20032;-68